Latest Coastal Weather Observations for Coolangatta (QLD)

IDN60701

Issued at 3:31 am EST Tuesday 28 June 2022 (issued every 10 minutes, with the page automatically refreshed every 10 minutes)

About coastal observations | Map of coastal stations | Coastal observations for NSW | Marine services | Other Formats
Station Details ID: 040717 Name: COOLANGATTA Lat: -28.17 Lon: 153.51 Height: 4.0 m
Data from the previous 72 hours. | See also: Recent months at Coolangatta (QLD)

Observations at Coolangatta are collected in the Queensland time zone, which does not include daylight savings during the summer period. Therefore 'Rain since 9am' totals and other values are based on the Queensland time zone.

Date/Time
EST
Wind Sea
Height
m
Swell Vis
km
Cloud Weather Temp
°C
Press
MSL
hPa
Rain since
9am
mm
Dir  Spd
kts
Gust
kts
Height
m
Period
s
Dir
28/03:30am SSW 11 17 - - - - 10 Partly cloudy - 13.6 1023.1 0.2
28/03:00am SSW 14 21 - - - - 10 Partly cloudy - 14.2 1023.1 0.2
28/02:30am SSW 13 23 - - - - 10 Partly cloudy - 14.4 1023.3 0.2
28/02:00am SSW 11 18 - - - - 10 Partly cloudy - 14.4 1023.4 0.2
28/01:30am SSW 9 15 - - - - 10 Partly cloudy - 14.9 1023.5 0.2
28/01:00am SSW 11 16 - - - - 10 Partly cloudy - 15.0 1023.5 0.2
28/12:30am SSW 13 19 - - - - 10 Partly cloudy - 15.1 1023.7 0.2
28/12:00am SSW 12 19 - - - - 10 Mostly clear - 14.9 1023.9 0.2
 
Date/Time
EST
Wind Sea
Height
m
Swell Vis
km
Cloud Weather Temp
°C
Press
MSL
hPa
Rain since
9am
mm
Dir  Spd
kts
Gust
kts
Height
m
Period
s
Dir
27/11:30pm SSW 9 14 - - - - 10 - - 14.9 1023.9 0.2
27/11:00pm SSW 9 13 - - - - 10 - - 15.1 1023.9 0.2
27/10:30pm SSW 10 15 - - - - 10 - - 15.5 1023.8 0.2
27/10:00pm SSW 7 10 - - - - 10 - - 15.6 1023.6 0.2
27/09:30pm S 10 17 - - - - 10 - - 15.9 1023.4 0.2
27/09:00pm SSW 11 15 - - - - 10 - - 16.2 1023.2 0.2
27/08:30pm SSW 10 15 - - - - 10 - - 16.1 1022.8 0.2
27/08:00pm SSW 5 8 - - - - 10 - - 15.7 1022.9 0.2
27/07:30pm SSW 6 9 - - - - 10 - - 15.8 1022.6 0.2
27/07:00pm SSW 4 6 - - - - 10 - - 15.5 1022.4 0.2
27/06:30pm SSW 6 8 - - - - 10 - - 15.9 1022.2 0.2
27/06:00pm S 7 10 - - - - 10 - - 16.2 1021.7 0.2
27/05:30pm SSE 6 8 - - - - 10 - - 16.2 1021.3 0.2
27/05:00pm SSE 6 10 - - - - 10 - - 16.9 1021.0 0.2
27/04:30pm SSE 6 8 - - - - 10 - - 18.6 1020.8 0.2
27/04:00pm S 8 11 - - - - 10 - - 19.7 1020.4 0.2
27/03:30pm S 8 13 - - - - 10 - - 20.5 1020.3 0.2
27/03:00pm S 10 14 - - - - 10 - - 20.7 1020.1 0.2
27/02:30pm SSW 10 14 - - - - 10 - - 21.0 1020.3 0.2
27/02:00pm S 7 11 - - - - 10 - - 21.5 1020.3 0.2
27/01:30pm SSW 9 13 - - - - 10 - - 22.0 1020.2 0.2
27/01:00pm SW 8 14 - - - - 10 - - 21.5 1020.5 0.2
27/12:30pm SW 9 14 - - - - 10 - - 21.5 1020.8 0.2
27/12:00pm WSW 10 13 - - - - 10 - Recent precip. 21.8 1021.2 0.2
27/11:30am SW 8 12 - - - - 10 - - 21.7 1021.5 0.0
27/11:00am W 6 8 - - - - 10 - - 21.0 1022.1 0.0
27/10:30am WSW 5 7 - - - - 10 - - 19.5 1022.3 0.0
27/10:00am CALM 0 4 - - - - 10 - - 18.4 1022.5 0.0
27/09:30am CALM 0 0 - - - - 10 - - 16.2 1022.8 0.0
27/09:00am CALM 0 0 - - - - 10 Partly cloudy - 14.6 1023.0 0.0
27/08:30am WSW 2 5 - - - - 10 - - 12.8 1023.2 0.0
27/08:00am WSW 5 6 - - - - 10 - - 12.1 1023.2 0.0
27/07:30am WSW 3 4 - - - - 10 - - 10.6 1023.1 0.0
27/07:00am CALM 0 2 - - - - 10 - - 9.3 1023.2 0.0
27/06:30am WSW 3 5 - - - - 10 - - 8.7 1023.0 0.0
27/06:00am WSW 2 4 - - - - 10 - - 8.6 1022.5 0.0
27/05:30am WSW 3 4 - - - - 10 - - 9.1 1022.6 0.0
27/05:00am WSW 4 6 - - - - 10 - - 9.4 1022.6 0.0
27/04:30am WSW 5 7 - - - - 10 - - 9.5 1022.5 0.0
27/04:00am WSW 2 4 - - - - 10 - - 9.8 1022.4 0.0
27/03:30am CALM 0 3 - - - - 10 - - 10.1 1022.8 0.0
27/03:00am WSW 6 6 - - - - 10 - - 10.5 1023.1 0.0
27/02:30am WSW 6 6 - - - - 10 - - 10.7 1023.2 0.0
27/02:00am WSW 5 6 - - - - 10 - - 10.9 1023.7 0.0
27/01:30am WSW 5 6 - - - - 10 - - 10.2 1023.9 0.0
27/01:00am WSW 5 6 - - - - 10 - - 11.4 1024.1 0.0
27/12:30am WSW 6 6 - - - - 10 - - 11.7 1024.4 0.0
27/12:00am WSW 6 7 - - - - 10 - - 12.1 1024.5 0.0
 
Date/Time
EST
Wind Sea
Height
m
Swell Vis
km
Cloud Weather Temp
°C
Press
MSL
hPa
Rain since
9am
mm
Dir  Spd
kts
Gust
kts
Height
m
Period
s
Dir
26/11:30pm SW 6 7 - - - - 10 - - 12.5 1024.5 0.0
26/11:00pm SW 6 7 - - - - 10 - - 12.0 1024.7 0.0
26/10:30pm S 6 7 - - - - 10 - - 12.4 1025.0 0.0
26/10:00pm ESE 2 4 - - - - 10 - - 11.1 1025.1 0.0
26/09:30pm ESE 4 5 - - - - 10 - - 12.2 1025.0 0.0
26/09:00pm ESE 3 4 - - - - 10 - - 12.7 1024.8 0.0
26/08:30pm E 5 7 - - - - 10 - - 12.8 1024.7 0.0
26/08:00pm E 4 6 - - - - 10 - - 12.9 1024.9 0.0
26/07:30pm E 4 5 - - - - 10 Partly cloudy - 13.6 1024.7 0.0
26/07:00pm E 5 6 - - - - 10 Partly cloudy - 13.7 1024.6 0.0
26/06:30pm ENE 3 6 - - - - 10 Partly cloudy - 13.9 1024.4 0.0
26/06:00pm ENE 5 6 - - - - 10 Mostly clear - 14.6 1024.1 0.0
26/05:30pm ENE 4 5 - - - - 10 - - 15.1 1023.7 0.0
26/05:00pm ENE 3 5 - - - - 10 - - 18.0 1023.5 0.0
26/04:30pm NE 6 8 - - - - 10 - - 19.2 1023.2 0.0
26/04:00pm ENE 7 9 - - - - 10 - - 20.0 1023.1 0.0
26/03:30pm NE 7 9 - - - - 10 - - 20.3 1023.1 0.0
26/03:00pm NNE 8 10 - - - - 10 - - 20.5 1023.2 0.0
26/02:30pm NNE 8 10 - - - - 10 - - 20.8 1023.2 0.0
26/02:00pm NNE 7 10 - - - - 10 - - 21.0 1023.6 0.0
26/01:30pm NNE 6 9 - - - - 10 - - 21.4 1023.5 0.0
26/01:00pm NNE 6 8 - - - - 10 - - 21.0 1023.6 0.0
26/12:30pm N 6 8 - - - - 10 Partly cloudy - 21.4 1024.0 0.0
26/12:00pm NNE 7 9 - - - - 10 Partly cloudy - 21.4 1024.4 0.0
26/11:30am E 5 8 - - - - 10 Partly cloudy - 21.8 1024.7 0.0
26/11:00am SSE 4 6 - - - - 10 Partly cloudy - 21.0 1025.0 0.0
26/10:30am S 4 6 - - - - 10 - - 20.4 1025.2 0.0
26/10:00am SW 3 5 - - - - 10 - - 19.9 1025.3 0.0
26/09:30am SW 2 4 - - - - 10 - - 18.2 1025.5 0.0
26/09:00am CALM 0 0 - - - - 10 - - 16.1 1025.4 0.0
26/08:30am CALM 0 0 - - - - 10 - - 13.9 1025.4 0.0
26/08:00am SW 2 3 - - - - 10 - - 12.4 1025.3 0.0
26/07:30am SW 3 4 - - - - 10 - - 10.8 1025.3 0.0
26/07:00am SW 3 4 - - - - 10 - - 10.4 1025.0 0.0
26/06:30am SW 3 4 - - - - 10 - - 9.9 1024.7 0.0
26/06:00am SW 1 4 - - - - 10 - - 9.9 1024.5 0.0
26/05:30am SW 4 5 - - - - 10 - - 9.6 1024.1 0.0
26/05:00am SW 3 4 - - - - 10 - - 10.0 1023.8 0.0
26/04:30am SW 3 4 - - - - 10 - - 10.4 1023.6 0.0
26/04:24am SW 3 4 - - - - 10 - - 10.3 1023.6 0.0
26/04:00am CALM 0 4 - - - - 1 - - 9.6 1023.5 0.0
26/03:50am SW 1 3 - - - - 5 - - 9.8 1023.5 0.0
26/03:30am SW 3 4 - - - - 10 - - 10.3 1023.4 0.0
26/03:01am SW 3 4 - - - - 1 - - 10.3 1023.5 0.0
26/03:00am SW 2 4 - - - - 0.5 - - 10.3 1023.5 0.0
26/02:48am CALM 0 2 - - - - 0.9 - - 9.8 1023.6 0.0
26/02:45am SW 1 3 - - - - 1 - - 10.4 1023.6 0.0
26/02:44am SW 1 3 - - - - 0.9 - - 10.3 1023.6 0.0
26/02:30am SW 4 5 - - - - 5 - - 10.3 1023.6 0.0
26/02:00am SW 3 4 - - - - 1 - - 10.4 1023.6 0.0
26/01:55am SW 3 4 - - - - 4 - - 10.3 1023.6 0.0
26/01:54am SW 3 4 - - - - 8 - - 10.2 1023.7 0.0
26/01:42am SW 4 4 - - - - 1 - - 10.9 1023.7 0.0
26/01:35am SW 3 4 - - - - 0.8 - - 10.5 1023.7 0.0
26/01:30am SW 3 4 - - - - 10 - - 11.0 1023.8 0.0
26/01:18am SW 3 4 - - - - 5 - - 11.2 1023.8 0.0
26/01:00am SW 3 4 - - - - 10 - - 11.5 1023.9 0.0
26/12:30am CALM 0 0 - - - - 10 - - 11.0 1023.8 0.0
26/12:00am SW 5 7 - - - - 10 - - 11.5 1023.9 0.0
 
Date/Time
EST
Wind Sea
Height
m
Swell Vis
km
Cloud Weather Temp
°C
Press
MSL
hPa
Rain since
9am
mm
Dir  Spd
kts
Gust
kts
Height
m
Period
s
Dir
25/11:30pm CALM 0 0 - - - - 10 - - 11.3 1024.2 0.0
25/11:00pm SW 3 5 - - - - 10 - - 11.5 1024.4 0.0
25/10:30pm SW 3 5 - - - - 10 - - 11.5 1024.5 0.0
25/10:00pm CALM 0 0 - - - - 10 - - 12.1 1024.4 0.0
25/09:30pm CALM 0 0 - - - - 10 - - 12.1 1024.3 0.0
25/09:00pm SW 3 4 - - - - 10 - - 12.1 1024.2 0.0
25/08:30pm SW 5 6 - - - - 10 - - 12.2 1024.1 0.0
25/08:00pm SW 5 7 - - - - 10 - - 12.8 1023.9 0.0
25/07:30pm SW 7 8 - - - - 10 - - 13.0 1023.7 0.0
25/07:00pm SW 5 6 - - - - 10 - - 13.2 1023.4 0.0
25/06:30pm SW 6 7 - - - - 10 - - 13.7 1023.1 0.0
25/06:00pm SSW 7 7 - - - - 10 - - 14.3 1022.6 0.0
25/05:30pm SE 4 5 - - - - 10 - - 14.2 1022.2 0.0
25/05:00pm SE 3 4 - - - - 10 - - 15.9 1021.7 0.0
25/04:30pm SE 6 7 - - - - 10 - - 18.3 1021.7 0.0
25/04:00pm ESE 7 10 - - - - 10 - - 19.3 1021.8 0.0
25/03:30pm ESE 7 9 - - - - 10 - - 20.0 1021.4 0.0
25/03:00pm ESE 7 8 - - - - 10 - - 20.5 1021.4 0.0
25/02:30pm ESE 6 9 - - - - 10 - - 20.1 1021.4 0.0
25/02:00pm E 8 10 - - - - 10 - - 20.7 1021.4 0.0
25/01:30pm ESE 8 12 - - - - 10 - - 20.7 1021.3 0.0
25/01:00pm ESE 8 11 - - - - 10 - - 20.8 1021.5 0.0
25/12:30pm ESE 9 11 - - - - 10 - - 20.7 1021.7 0.0
25/12:00pm SSE 3 9 - - - - 10 - - 21.1 1021.9 0.0
25/11:30am SSE 5 8 - - - - 10 - - 20.6 1022.1 0.0
25/11:00am SSE 6 8 - - - - 10 - - 20.0 1022.4 0.0
25/10:30am SSE 6 7 - - - - 10 - - 19.7 1022.6 0.0
25/10:00am WSW 5 7 - - - - 10 - - 19.2 1022.7 0.0
25/09:30am W 2 4 - - - - 10 - - 18.0 1022.6 0.0
25/09:00am W 3 4 - - - - 10 - - 15.1 1022.3 0.0
25/08:30am W 1 4 - - - - 10 - - 13.2 1022.3 0.0
25/08:00am W 3 4 - - - - 10 - - 10.9 1022.1 0.0
25/07:30am CALM 0 0 - - - - 10 - - 8.8 1022.1 0.0
25/07:00am W 3 4 - - - - 10 - - 7.5 1021.7 0.0
25/06:30am W 3 4 - - - - 10 - - 5.8 1021.4 0.0
25/06:00am W 4 5 - - - - 10 - - 6.7 1020.9 0.0
25/05:30am CALM 0 0 - - - - 10 - - 5.5 1020.8 0.0
25/05:00am CALM 0 0 - - - - 10 - - 6.0 1020.4 0.0
25/04:30am W 3 4 - - - - 10 - - 7.3 1020.0 0.0
25/04:00am W 1 3 - - - - 10 - - 7.6 1019.8 0.0

Other formats

Comma delimited format used in spreadsheet applications
http://www.bom.gov.au/fwo/IDN60701/IDN60701.94592.axf

JavaScript Object Notation format (JSON) in row-major order
http://www.bom.gov.au/fwo/IDN60701/IDN60701.94592.json

Data quality

Most of these data are generated automatically and are frequently updated. Quality checks on data are not normally performed. It is possible for incorrect values to appear. Refer to information at About Latest Weather Observations and please check the disclaimer before using these data.